N737M EGPH-EGLL
Flight info
| Callsign | N737M |
|---|---|
| Flight time | 1h 1m |
| Altitude | 31000 |
| Route | GOSAM P600 FENIK L612 NAVSO DCT AKOMU DCT VAMEB DCT NUGRA |
| Aircraft | B738/M-SDE2E3FGHIRWXY/LB1 |
Departure
| Time | 2026-04-21 11:41 |
|---|---|
| Airport | Edinburgh Airport (EGPH) |
Arrival
| Time | 2026-04-21 12:42 |
|---|---|
| Airport | London Heathrow Airport (EGLL) |
| Time | Latitude | Longitude | Altitude | Speed | Heading |
|---|---|---|---|---|---|
| 2026-04-21 11:13 | 55.94702 | -3.36852 | 111 ft | 0 kts | 269° |
| 2026-04-21 11:32 | 55.94702 | -3.36847 | 115 ft | 1 kts | 269° |
| 2026-04-21 11:32 | 55.94703 | -3.36816 | 111 ft | 3 kts | 270° |
| 2026-04-21 11:33 | 55.94703 | -3.36783 | 112 ft | 3 kts | 274° |
| 2026-04-21 11:33 | 55.94699 | -3.36752 | 111 ft | 3 kts | 314° |
| 2026-04-21 11:33 | 55.94684 | -3.36737 | 112 ft | 3 kts | 353° |
| 2026-04-21 11:33 | 55.94664 | -3.36735 | 112 ft | 2 kts | 360° |
| 2026-04-21 11:34 | 55.94659 | -3.36735 | 112 ft | 0 kts | 359° |
| 2026-04-21 11:36 | 55.94660 | -3.36735 | 112 ft | 1 kts | 359° |
| 2026-04-21 11:36 | 55.94676 | -3.36735 | 111 ft | 4 kts | 358° |
| 2026-04-21 11:36 | 55.94706 | -3.36737 | 111 ft | 5 kts | 359° |
| 2026-04-21 11:36 | 55.94751 | -3.36748 | 115 ft | 9 kts | 337° |
| 2026-04-21 11:37 | 55.94821 | -3.36776 | 115 ft | 12 kts | 2° |
| 2026-04-21 11:37 | 55.94909 | -3.36819 | 114 ft | 14 kts | 323° |
| 2026-04-21 11:37 | 55.94883 | -3.37020 | 113 ft | 14 kts | 238° |
| 2026-04-21 11:37 | 55.94849 | -3.37121 | 112 ft | 15 kts | 239° |
| 2026-04-21 11:38 | 55.94794 | -3.37286 | 115 ft | 16 kts | 239° |
| 2026-04-21 11:38 | 55.94738 | -3.37447 | 112 ft | 16 kts | 240° |
| 2026-04-21 11:38 | 55.94677 | -3.37632 | 114 ft | 19 kts | 239° |
| 2026-04-21 11:38 | 55.94605 | -3.37842 | 115 ft | 21 kts | 238° |
| 2026-04-21 11:39 | 55.94524 | -3.38076 | 115 ft | 23 kts | 238° |
| 2026-04-21 11:39 | 55.94437 | -3.38338 | 113 ft | 26 kts | 239° |
| 2026-04-21 11:39 | 55.94341 | -3.38619 | 114 ft | 27 kts | 239° |
| 2026-04-21 11:39 | 55.94285 | -3.38843 | 115 ft | 17 kts | 289° |
| 2026-04-21 11:40 | 55.94388 | -3.38966 | 112 ft | 20 kts | 346° |
| 2026-04-21 11:40 | 55.94468 | -3.38819 | 112 ft | 20 kts | 60° |
| 2026-04-21 11:40 | 55.94659 | -3.38255 | 111 ft | 91 kts | 59° |
| 2026-04-21 11:40 | 55.95100 | -3.36957 | 159 ft | 148 kts | 59° |
| 2026-04-21 11:41 | 55.95658 | -3.35296 | 811 ft | 165 kts | 60° |
| 2026-04-21 11:41 | 55.96248 | -3.33584 | 1918 ft | 155 kts | 60° |
| 2026-04-21 11:41 | 55.96831 | -3.31965 | 2909 ft | 161 kts | 54° |
| 2026-04-21 11:41 | 55.97718 | -3.30658 | 3616 ft | 187 kts | 37° |
| 2026-04-21 11:42 | 55.98852 | -3.29144 | 3961 ft | 220 kts | 43° |
| 2026-04-21 11:42 | 56.00261 | -3.27764 | 4419 ft | 252 kts | 14° |
| 2026-04-21 11:42 | 56.02042 | -3.28211 | 5271 ft | 272 kts | 337° |
| 2026-04-21 11:42 | 56.03482 | -3.30461 | 5796 ft | 284 kts | 303° |
| 2026-04-21 11:43 | 56.04058 | -3.33832 | 5992 ft | 289 kts | 269° |
| 2026-04-21 11:43 | 56.03555 | -3.37278 | 6010 ft | 284 kts | 240° |
| 2026-04-21 11:43 | 56.02669 | -3.40454 | 6123 ft | 290 kts | 244° |
| 2026-04-21 11:43 | 56.01949 | -3.43848 | 7024 ft | 290 kts | 248° |
| 2026-04-21 11:44 | 56.01334 | -3.47285 | 8037 ft | 291 kts | 251° |
| 2026-04-21 11:44 | 56.00790 | -3.50754 | 8907 ft | 296 kts | 252° |
| 2026-04-21 11:44 | 56.00264 | -3.54341 | 9850 ft | 300 kts | 252° |
| 2026-04-21 11:44 | 55.99743 | -3.57980 | 10753 ft | 304 kts | 252° |
| 2026-04-21 11:45 | 55.99218 | -3.61660 | 11616 ft | 308 kts | 252° |
| 2026-04-21 11:45 | 55.98683 | -3.65396 | 12480 ft | 312 kts | 252° |
| 2026-04-21 11:45 | 55.98142 | -3.69173 | 13341 ft | 317 kts | 253° |
| 2026-04-21 11:45 | 55.97589 | -3.73016 | 14259 ft | 321 kts | 252° |
| 2026-04-21 11:46 | 55.97010 | -3.77018 | 14416 ft | 347 kts | 253° |
| 2026-04-21 11:46 | 55.96398 | -3.81244 | 14635 ft | 371 kts | 253° |
| 2026-04-21 11:46 | 55.95723 | -3.85918 | 15097 ft | 386 kts | 253° |
| 2026-04-21 11:46 | 55.95046 | -3.90592 | 15855 ft | 391 kts | 253° |
| 2026-04-21 11:47 | 55.94360 | -3.95313 | 16701 ft | 395 kts | 253° |
| 2026-04-21 11:47 | 55.93487 | -3.99884 | 17522 ft | 394 kts | 239° |
| 2026-04-21 11:47 | 55.92020 | -4.03789 | 18276 ft | 392 kts | 225° |
| 2026-04-21 11:47 | 55.90051 | -4.07132 | 19012 ft | 390 kts | 212° |
| 2026-04-21 11:48 | 55.87793 | -4.09844 | 19694 ft | 392 kts | 208° |
| 2026-04-21 11:48 | 55.85475 | -4.12470 | 20359 ft | 397 kts | 208° |
| 2026-04-21 11:48 | 55.83143 | -4.15134 | 21028 ft | 401 kts | 208° |
| 2026-04-21 11:48 | 55.80793 | -4.17864 | 21683 ft | 406 kts | 208° |
| 2026-04-21 11:49 | 55.78426 | -4.20643 | 22324 ft | 410 kts | 209° |
| 2026-04-21 11:49 | 55.76055 | -4.23530 | 22958 ft | 415 kts | 210° |
| 2026-04-21 11:49 | 55.73529 | -4.25930 | 23520 ft | 410 kts | 192° |
| 2026-04-21 11:49 | 55.70746 | -4.26510 | 24169 ft | 400 kts | 172° |
| 2026-04-21 11:50 | 55.68038 | -4.25652 | 24791 ft | 393 kts | 158° |
| 2026-04-21 11:50 | 55.65576 | -4.23635 | 25303 ft | 391 kts | 148° |
| 2026-04-21 11:50 | 55.63193 | -4.21261 | 25752 ft | 395 kts | 147° |
| 2026-04-21 11:50 | 55.60793 | -4.18823 | 26210 ft | 399 kts | 147° |
| 2026-04-21 11:51 | 55.58370 | -4.16384 | 26681 ft | 402 kts | 147° |
| 2026-04-21 11:51 | 55.55922 | -4.13958 | 27153 ft | 405 kts | 148° |
| 2026-04-21 11:51 | 55.53442 | -4.11530 | 27608 ft | 409 kts | 148° |
| 2026-04-21 11:51 | 55.50942 | -4.09098 | 28054 ft | 412 kts | 148° |
| 2026-04-21 11:52 | 55.48422 | -4.06651 | 28478 ft | 415 kts | 148° |
| 2026-04-21 11:52 | 55.45883 | -4.04184 | 28908 ft | 418 kts | 148° |
| 2026-04-21 11:52 | 55.43318 | -4.01692 | 29217 ft | 424 kts | 149° |
| 2026-04-21 11:52 | 55.40720 | -3.99172 | 29548 ft | 428 kts | 149° |
| 2026-04-21 11:53 | 55.38139 | -3.96671 | 30044 ft | 429 kts | 149° |
| 2026-04-21 11:53 | 55.35501 | -3.94119 | 30667 ft | 426 kts | 150° |
| 2026-04-21 11:53 | 55.32941 | -3.91646 | 31152 ft | 425 kts | 150° |
| 2026-04-21 11:53 | 55.30348 | -3.89145 | 31474 ft | 426 kts | 150° |
| 2026-04-21 11:54 | 55.25182 | -3.84171 | 31496 ft | 427 kts | 150° |
| 2026-04-21 11:54 | 55.19886 | -3.79171 | 31504 ft | 435 kts | 152° |
| 2026-04-21 11:55 | 55.14501 | -3.74550 | 31495 ft | 428 kts | 153° |
| 2026-04-21 11:55 | 55.09147 | -3.70042 | 31487 ft | 429 kts | 153° |
| 2026-04-21 11:56 | 55.03769 | -3.65478 | 31493 ft | 427 kts | 153° |
| 2026-04-21 11:56 | 54.98481 | -3.60971 | 31487 ft | 426 kts | 153° |
| 2026-04-21 11:57 | 54.93118 | -3.56403 | 31478 ft | 435 kts | 155° |
| 2026-04-21 11:57 | 54.87585 | -3.51706 | 31488 ft | 447 kts | 154° |
| 2026-04-21 11:58 | 54.81967 | -3.46952 | 31477 ft | 450 kts | 154° |
| 2026-04-21 11:58 | 54.76352 | -3.42213 | 31462 ft | 442 kts | 155° |
| 2026-04-21 11:59 | 54.70834 | -3.37572 | 31471 ft | 442 kts | 154° |
| 2026-04-21 11:59 | 54.65252 | -3.32897 | 31477 ft | 457 kts | 156° |
| 2026-04-21 12:00 | 54.59471 | -3.28068 | 31461 ft | 461 kts | 155° |
| 2026-04-21 12:00 | 54.53745 | -3.23290 | 31461 ft | 456 kts | 157° |
| 2026-04-21 12:01 | 54.48033 | -3.18545 | 31461 ft | 455 kts | 156° |
| 2026-04-21 12:01 | 54.42330 | -3.13821 | 31456 ft | 455 kts | 157° |
| 2026-04-21 12:02 | 54.33664 | -3.06678 | 31452 ft | 463 kts | 156° |
| 2026-04-21 12:03 | 54.27834 | -3.01886 | 31445 ft | 466 kts | 157° |
| 2026-04-21 12:03 | 54.22092 | -2.97179 | 31451 ft | 462 kts | 156° |
| 2026-04-21 12:04 | 54.16284 | -2.92442 | 31446 ft | 464 kts | 158° |
| 2026-04-21 12:04 | 54.10338 | -2.88086 | 31443 ft | 467 kts | 160° |
| 2026-04-21 12:05 | 54.04309 | -2.83812 | 31438 ft | 470 kts | 159° |
| 2026-04-21 12:05 | 53.98281 | -2.79631 | 31424 ft | 470 kts | 163° |
| 2026-04-21 12:06 | 53.92058 | -2.76304 | 31422 ft | 468 kts | 166° |
| 2026-04-21 12:06 | 53.85813 | -2.73156 | 31427 ft | 468 kts | 166° |
| 2026-04-21 12:07 | 53.79595 | -2.69953 | 31421 ft | 467 kts | 166° |
| 2026-04-21 12:07 | 53.73383 | -2.66701 | 31416 ft | 466 kts | 166° |
| 2026-04-21 12:08 | 53.67194 | -2.63453 | 31411 ft | 467 kts | 167° |
| 2026-04-21 12:08 | 53.60954 | -2.60194 | 31420 ft | 470 kts | 167° |
| 2026-04-21 12:09 | 53.54682 | -2.56932 | 31423 ft | 473 kts | 166° |
| 2026-04-21 12:09 | 53.48434 | -2.53687 | 31405 ft | 473 kts | 166° |
| 2026-04-21 12:10 | 53.42139 | -2.50427 | 31396 ft | 473 kts | 166° |
| 2026-04-21 12:10 | 53.35863 | -2.47190 | 31407 ft | 472 kts | 166° |
| 2026-04-21 12:11 | 53.29597 | -2.43969 | 31397 ft | 471 kts | 166° |
| 2026-04-21 12:11 | 53.23333 | -2.40758 | 31390 ft | 470 kts | 166° |
| 2026-04-21 12:12 | 53.17069 | -2.37556 | 31395 ft | 471 kts | 167° |
| 2026-04-21 12:12 | 53.10771 | -2.34348 | 31398 ft | 474 kts | 167° |
| 2026-04-21 12:13 | 53.04443 | -2.31132 | 31392 ft | 476 kts | 167° |
| 2026-04-21 12:13 | 53.01396 | -2.29087 | 31357 ft | 484 kts | 154° |
| 2026-04-21 12:13 | 52.98525 | -2.26175 | 31367 ft | 486 kts | 150° |
| 2026-04-21 12:14 | 52.92839 | -2.19972 | 31375 ft | 491 kts | 150° |
| 2026-04-21 12:14 | 52.87100 | -2.13773 | 31384 ft | 495 kts | 151° |
| 2026-04-21 12:15 | 52.81263 | -2.07640 | 31373 ft | 498 kts | 151° |
| 2026-04-21 12:15 | 52.75379 | -2.01535 | 31371 ft | 500 kts | 152° |
| 2026-04-21 12:16 | 52.69562 | -1.95522 | 30859 ft | 505 kts | 152° |
| 2026-04-21 12:16 | 52.66590 | -1.92454 | 30147 ft | 503 kts | 152° |
| 2026-04-21 12:16 | 52.63624 | -1.89396 | 29284 ft | 502 kts | 151° |
| 2026-04-21 12:16 | 52.60711 | -1.86397 | 28566 ft | 499 kts | 150° |
| 2026-04-21 12:17 | 52.57780 | -1.83381 | 27986 ft | 492 kts | 150° |
| 2026-04-21 12:17 | 52.54891 | -1.80414 | 27412 ft | 486 kts | 150° |
| 2026-04-21 12:17 | 52.52038 | -1.77489 | 26810 ft | 480 kts | 150° |
| 2026-04-21 12:17 | 52.49220 | -1.74605 | 26231 ft | 475 kts | 150° |
| 2026-04-21 12:18 | 52.46429 | -1.71755 | 25656 ft | 470 kts | 150° |
| 2026-04-21 12:18 | 52.43662 | -1.68933 | 25086 ft | 465 kts | 149° |
| 2026-04-21 12:18 | 52.40925 | -1.66146 | 24544 ft | 461 kts | 149° |
| 2026-04-21 12:18 | 52.38216 | -1.63391 | 23976 ft | 456 kts | 149° |
| 2026-04-21 12:19 | 52.35536 | -1.60669 | 23321 ft | 452 kts | 149° |
| 2026-04-21 12:19 | 52.32881 | -1.57976 | 22742 ft | 445 kts | 148° |
| 2026-04-21 12:19 | 52.30270 | -1.55331 | 22210 ft | 439 kts | 148° |
| 2026-04-21 12:19 | 52.27692 | -1.52722 | 21665 ft | 432 kts | 148° |
| 2026-04-21 12:20 | 52.25148 | -1.50152 | 21092 ft | 428 kts | 148° |
| 2026-04-21 12:20 | 52.22633 | -1.47616 | 20559 ft | 423 kts | 148° |
| 2026-04-21 12:20 | 52.20218 | -1.44958 | 20089 ft | 414 kts | 141° |
| 2026-04-21 12:20 | 52.18033 | -1.42007 | 19685 ft | 403 kts | 137° |
| 2026-04-21 12:21 | 52.15958 | -1.38999 | 19293 ft | 394 kts | 136° |
| 2026-04-21 12:21 | 52.13946 | -1.36054 | 18902 ft | 385 kts | 136° |
| 2026-04-21 12:21 | 52.11986 | -1.33226 | 18501 ft | 377 kts | 137° |
| 2026-04-21 12:21 | 52.10042 | -1.30462 | 18068 ft | 365 kts | 137° |
| 2026-04-21 12:22 | 52.08150 | -1.27809 | 17703 ft | 355 kts | 137° |
| 2026-04-21 12:22 | 52.06277 | -1.25199 | 17336 ft | 354 kts | 137° |
| 2026-04-21 12:22 | 52.04410 | -1.22604 | 16970 ft | 353 kts | 137° |
| 2026-04-21 12:22 | 52.02531 | -1.19998 | 16563 ft | 360 kts | 138° |
| 2026-04-21 12:23 | 52.00641 | -1.17381 | 16195 ft | 352 kts | 137° |
| 2026-04-21 12:23 | 51.98809 | -1.14851 | 15831 ft | 341 kts | 138° |
| 2026-04-21 12:23 | 51.97632 | -1.13228 | 15606 ft | 330 kts | 137° |
| 2026-04-21 12:23 | 51.95919 | -1.10867 | 15278 ft | 316 kts | 136° |
| 2026-04-21 12:24 | 51.94272 | -1.08599 | 14922 ft | 304 kts | 136° |
| 2026-04-21 12:24 | 51.92682 | -1.06407 | 14576 ft | 295 kts | 137° |
| 2026-04-21 12:24 | 51.91144 | -1.04289 | 14255 ft | 286 kts | 137° |
| 2026-04-21 12:24 | 51.89651 | -1.02233 | 13901 ft | 278 kts | 137° |
| 2026-04-21 12:25 | 51.88199 | -1.00238 | 13568 ft | 270 kts | 137° |
| 2026-04-21 12:25 | 51.86837 | -0.98371 | 13278 ft | 262 kts | 137° |
| 2026-04-21 12:25 | 51.85491 | -0.96457 | 12971 ft | 253 kts | 129° |
| 2026-04-21 12:25 | 51.84611 | -0.94083 | 12720 ft | 243 kts | 113° |
| 2026-04-21 12:26 | 51.83868 | -0.91627 | 12439 ft | 244 kts | 114° |
| 2026-04-21 12:26 | 51.83121 | -0.89169 | 12148 ft | 244 kts | 114° |
| 2026-04-21 12:26 | 51.82372 | -0.86705 | 11866 ft | 244 kts | 114° |
| 2026-04-21 12:26 | 51.81630 | -0.84275 | 11577 ft | 244 kts | 114° |
| 2026-04-21 12:27 | 51.80879 | -0.81818 | 11304 ft | 244 kts | 114° |
| 2026-04-21 12:27 | 51.80127 | -0.79360 | 11010 ft | 244 kts | 114° |
| 2026-04-21 12:27 | 51.79375 | -0.76906 | 10834 ft | 240 kts | 114° |
| 2026-04-21 12:27 | 51.78638 | -0.74509 | 10635 ft | 236 kts | 114° |
| 2026-04-21 12:28 | 51.77910 | -0.72138 | 10379 ft | 236 kts | 114° |
| 2026-04-21 12:28 | 51.77186 | -0.69785 | 10174 ft | 233 kts | 114° |
| 2026-04-21 12:28 | 51.76462 | -0.67429 | 9834 ft | 235 kts | 114° |
| 2026-04-21 12:28 | 51.75742 | -0.65090 | 9685 ft | 229 kts | 114° |
| 2026-04-21 12:29 | 51.75027 | -0.62777 | 9406 ft | 231 kts | 114° |
| 2026-04-21 12:29 | 51.74317 | -0.60482 | 9369 ft | 228 kts | 114° |
| 2026-04-21 12:29 | 51.73595 | -0.58146 | 9334 ft | 236 kts | 114° |
| 2026-04-21 12:29 | 51.72684 | -0.55954 | 9373 ft | 239 kts | 135° |
| 2026-04-21 12:30 | 51.71202 | -0.54761 | 9343 ft | 244 kts | 165° |
| 2026-04-21 12:30 | 51.69490 | -0.54720 | 9076 ft | 246 kts | 179° |
| 2026-04-21 12:30 | 51.67774 | -0.54957 | 8767 ft | 249 kts | 180° |
| 2026-04-21 12:30 | 51.66049 | -0.55237 | 8517 ft | 249 kts | 184° |
| 2026-04-21 12:31 | 51.64429 | -0.56280 | 8350 ft | 259 kts | 214° |
| 2026-04-21 12:31 | 51.63311 | -0.58542 | 8326 ft | 262 kts | 245° |
| 2026-04-21 12:31 | 51.62772 | -0.61345 | 8328 ft | 262 kts | 255° |
| 2026-04-21 12:31 | 51.62337 | -0.64194 | 8323 ft | 263 kts | 255° |
| 2026-04-21 12:32 | 51.61909 | -0.67073 | 8325 ft | 267 kts | 255° |
| 2026-04-21 12:32 | 51.61479 | -0.69990 | 8330 ft | 268 kts | 256° |
| 2026-04-21 12:32 | 51.61055 | -0.72877 | 8297 ft | 268 kts | 256° |
| 2026-04-21 12:32 | 51.60630 | -0.75781 | 8119 ft | 267 kts | 256° |
| 2026-04-21 12:33 | 51.60208 | -0.78666 | 7941 ft | 263 kts | 256° |
| 2026-04-21 12:33 | 51.59787 | -0.81545 | 7634 ft | 265 kts | 256° |
| 2026-04-21 12:33 | 51.59367 | -0.84419 | 7448 ft | 262 kts | 256° |
| 2026-04-21 12:33 | 51.58911 | -0.87246 | 7184 ft | 262 kts | 246° |
| 2026-04-21 12:34 | 51.57871 | -0.89590 | 6914 ft | 255 kts | 214° |
| 2026-04-21 12:34 | 51.56321 | -0.90756 | 6700 ft | 242 kts | 185° |
| 2026-04-21 12:34 | 51.54665 | -0.91119 | 6473 ft | 240 kts | 181° |
| 2026-04-21 12:34 | 51.52996 | -0.91431 | 6186 ft | 242 kts | 180° |
| 2026-04-21 12:35 | 51.51324 | -0.91735 | 5923 ft | 241 kts | 179° |
| 2026-04-21 12:35 | 51.49718 | -0.91413 | 5661 ft | 228 kts | 150° |
| 2026-04-21 12:35 | 51.48527 | -0.89881 | 5360 ft | 216 kts | 122° |
| 2026-04-21 12:35 | 51.47679 | -0.87981 | 5283 ft | 204 kts | 121° |
| 2026-04-21 12:36 | 51.46881 | -0.86183 | 5194 ft | 190 kts | 120° |
| 2026-04-21 12:36 | 51.46402 | -0.84332 | 4916 ft | 174 kts | 86° |
| 2026-04-21 12:36 | 51.46508 | -0.82461 | 4694 ft | 168 kts | 89° |
| 2026-04-21 12:36 | 51.46434 | -0.80613 | 4383 ft | 169 kts | 89° |
| 2026-04-21 12:37 | 51.46427 | -0.78719 | 3950 ft | 173 kts | 88° |
| 2026-04-21 12:37 | 51.46431 | -0.76841 | 3670 ft | 164 kts | 88° |
| 2026-04-21 12:37 | 51.46432 | -0.75075 | 3442 ft | 153 kts | 87° |
| 2026-04-21 12:37 | 51.46434 | -0.73426 | 3232 ft | 144 kts | 87° |
| 2026-04-21 12:38 | 51.46436 | -0.71841 | 3038 ft | 140 kts | 87° |
| 2026-04-21 12:38 | 51.46437 | -0.70275 | 2859 ft | 140 kts | 88° |
| 2026-04-21 12:38 | 51.46439 | -0.68714 | 2660 ft | 140 kts | 88° |
| 2026-04-21 12:38 | 51.46441 | -0.67142 | 2470 ft | 140 kts | 87° |
| 2026-04-21 12:39 | 51.46442 | -0.65607 | 2307 ft | 136 kts | 87° |
| 2026-04-21 12:39 | 51.46445 | -0.64038 | 2092 ft | 141 kts | 87° |
| 2026-04-21 12:39 | 51.46448 | -0.62475 | 1898 ft | 138 kts | 88° |
| 2026-04-21 12:39 | 51.46450 | -0.60918 | 1715 ft | 141 kts | 87° |
| 2026-04-21 12:40 | 51.46453 | -0.59342 | 1511 ft | 140 kts | 88° |
| 2026-04-21 12:40 | 51.46455 | -0.57800 | 1314 ft | 137 kts | 87° |
| 2026-04-21 12:40 | 51.46458 | -0.56262 | 1117 ft | 139 kts | 87° |
| 2026-04-21 12:40 | 51.46463 | -0.54767 | 908 ft | 130 kts | 87° |
| 2026-04-21 12:41 | 51.46463 | -0.53359 | 754 ft | 123 kts | 85° |
| 2026-04-21 12:41 | 51.46469 | -0.52020 | 582 ft | 118 kts | 87° |
| 2026-04-21 12:41 | 51.46479 | -0.50625 | 430 ft | 129 kts | 88° |
| 2026-04-21 12:41 | 51.46482 | -0.49157 | 257 ft | 134 kts | 90° |
| 2026-04-21 12:42 | 51.46481 | -0.47628 | 99 ft | 132 kts | 85° |
| 2026-04-21 12:42 | 51.46485 | -0.46331 | 89 ft | 98 kts | 90° |
| 2026-04-21 12:42 | 51.46492 | -0.45477 | 85 ft | 64 kts | 90° |
| 2026-04-21 12:42 | 51.46452 | -0.45057 | 88 ft | 29 kts | 116° |
| 2026-04-21 12:43 | 51.46408 | -0.44901 | 90 ft | 7 kts | 120° |
| 2026-04-21 12:43 | 51.46365 | -0.44864 | 85 ft | 8 kts | 182° |
| 2026-04-21 12:43 | 51.46323 | -0.44903 | 88 ft | 7 kts | 243° |
| 2026-04-21 12:43 | 51.46317 | -0.44991 | 87 ft | 8 kts | 272° |
| 2026-04-21 12:44 | 51.46318 | -0.45083 | 87 ft | 8 kts | 270° |
| 2026-04-21 12:44 | 51.46306 | -0.45163 | 87 ft | 8 kts | 229° |
| 2026-04-21 12:44 | 51.46261 | -0.45217 | 85 ft | 8 kts | 218° |
| 2026-04-21 12:44 | 51.46222 | -0.45275 | 89 ft | 8 kts | 223° |
| 2026-04-21 12:45 | 51.46194 | -0.45343 | 87 ft | 8 kts | 269° |
| 2026-04-21 12:45 | 51.46199 | -0.45436 | 88 ft | 7 kts | 276° |
| 2026-04-21 12:45 | 51.46231 | -0.45496 | 87 ft | 8 kts | 324° |
| 2026-04-21 12:45 | 51.46280 | -0.45549 | 88 ft | 7 kts | 323° |
| 2026-04-21 12:46 | 51.46277 | -0.45619 | 85 ft | 5 kts | 229° |
| 2026-04-21 12:46 | 51.46260 | -0.45657 | 87 ft | 3 kts | 235° |
| 2026-04-21 12:46 | 51.46256 | -0.45665 | 88 ft | 0 kts | 235° |
| 2026-04-21 12:46 | 51.46254 | -0.45670 | 87 ft | 0 kts | 235° |